Morse Mill, Missouri
Current Conditions -  °F | °C
As of 12:54 PM on Thursday 23 Oct 2014 (Local Time) from KSUS Reporting Station
Broken Clouds Broken Clouds  
Wind Chill: 62°   Ceiling: 20000
Heat Index: 62°   Visibility: 10mi
Dew Point: 44°   Wind: 7mph
Humidity: 52%   Direction: 200°SSW
Pressure: 30.16"   Gusts: NA
Location:  38.28°N, 90.65°W
Report Text: KSUS 231754Z 20006KT 10SM BKN200 17/07 A3016 RMK AO2 SLP214 T01670067 10167 20028 58019
Loading
Personal Weather Stations






























Interactive Weather Map
Tropical Storm Tracking
New forecast layout! Learn more

10-Day Weather Forecast

Advertisements
Track Severe Weather on mobile